<?xml version="1.0" encoding="UTF-8" standalone="no" ?>
<gpx xmlns="http://www.topografix.com/GPX/1/1" xmlns:xsi="http://www.w3.org/2001/XMLSchema-instance" xsi:schemaLocation="http://www.topografix.com/GPX/1/1 http://www.topografix.com/GPX/1/1/gpx.xsd" version="1.1" creator="VisuGPX - https://www.visugpx.com">
  <metadata>
    <name>581m - Balcon de la Forêt du Miollet (Champagny-en-Vanoise)</name>
  </metadata>
  <wpt lat="45.45612" lon="6.69285">
    <ele>1253</ele>
    <name><![CDATA[Parking de la]]></name>
  </wpt>
  <wpt lat="45.45652" lon="6.69931">
    <ele>1247</ele>
    <name><![CDATA[Ruiseau du Remous]]></name>
  </wpt>
  <wpt lat="45.45799" lon="6.69931">
    <ele>1275</ele>
    <name><![CDATA[Bifurcation avec le bois des cabanes]]></name>
  </wpt>
  <wpt lat="45.46052" lon="6.70343">
    <ele>1424</ele>
    <name><![CDATA[La Fougère]]></name>
  </wpt>
  <wpt lat="45.46428" lon="6.70475">
    <ele>1618</ele>
    <name><![CDATA[Carrefour vers Miollet]]></name>
  </wpt>
  <wpt lat="45.46865" lon="6.70224">
    <ele>1770</ele>
    <name><![CDATA[Carrefour à 4 directions]]></name>
  </wpt>
  <wpt lat="45.46808" lon="6.68824">
    <ele>1728</ele>
    <name><![CDATA[Carrefour piste]]></name>
  </wpt>
  <wpt lat="45.46945" lon="6.68593">
    <ele>1670</ele>
    <name><![CDATA[Ruisseau du Reclard]]></name>
  </wpt>
  <wpt lat="45.46603" lon="6.68498">
    <ele>1612</ele>
    <name><![CDATA[Fontaine]]></name>
  </wpt>
  <wpt lat="45.46137" lon="6.68406">
    <ele>1639</ele>
    <name><![CDATA[Carrefour point haut]]></name>
  </wpt>
  <wpt lat="45.45995" lon="6.68556">
    <ele>1557</ele>
    <name><![CDATA[Les Combes d'en Haut]]></name>
  </wpt>
  <wpt lat="45.45661" lon="6.68839">
    <ele>1409</ele>
    <name><![CDATA[Les Combes d'en Bas]]></name>
  </wpt>
  <wpt lat="45.45612" lon="6.69284">
    <ele>1253</ele>
    <name><![CDATA[Parking de la]]></name>
  </wpt>
  <trk>
    <name><![CDATA[Balcon de la Forêt du Miollet au départ de Champagny-en-Vanoise]]></name>
    <trkseg>
      <trkpt lat="45.45612" lon="6.69285">
        <ele>1253</ele>
        <time>2021-08-21T08:48:23+02:00</time>
      </trkpt>
      <trkpt lat="45.4567" lon="6.69302">
        <ele>1256</ele>
      </trkpt>
      <trkpt lat="45.45677" lon="6.69321">
        <ele>1248</ele>
      </trkpt>
      <trkpt lat="45.45675" lon="6.69351">
        <ele>1242</ele>
      </trkpt>
      <trkpt lat="45.45653" lon="6.69388">
        <ele>1239</ele>
      </trkpt>
      <trkpt lat="45.45623" lon="6.69424">
        <ele>1237</ele>
      </trkpt>
      <trkpt lat="45.45608" lon="6.69456">
        <ele>1240</ele>
      </trkpt>
      <trkpt lat="45.45612" lon="6.69506">
        <ele>1245</ele>
      </trkpt>
      <trkpt lat="45.4563" lon="6.69572">
        <ele>1243</ele>
      </trkpt>
      <trkpt lat="45.4565" lon="6.6962">
        <ele>1244</ele>
      </trkpt>
      <trkpt lat="45.45659" lon="6.69661">
        <ele>1244</ele>
      </trkpt>
      <trkpt lat="45.45644" lon="6.6967">
        <ele>1238</ele>
      </trkpt>
      <trkpt lat="45.45656" lon="6.69737">
        <ele>1240</ele>
      </trkpt>
      <trkpt lat="45.45655" lon="6.69785">
        <ele>1241</ele>
      </trkpt>
      <trkpt lat="45.45645" lon="6.69839">
        <ele>1243</ele>
      </trkpt>
      <trkpt lat="45.45645" lon="6.69887">
        <ele>1246</ele>
      </trkpt>
      <trkpt lat="45.45652" lon="6.69931">
        <ele>1247</ele>
      </trkpt>
      <trkpt lat="45.45672" lon="6.6992">
        <ele>1251</ele>
        <time>2021-08-21T08:48:44+02:00</time>
      </trkpt>
      <trkpt lat="45.45692" lon="6.69913">
        <ele>1255</ele>
        <time>2021-08-21T08:49:25+02:00</time>
      </trkpt>
      <trkpt lat="45.45711" lon="6.69918">
        <ele>1258</ele>
        <time>2021-08-21T08:49:46+02:00</time>
      </trkpt>
      <trkpt lat="45.45729" lon="6.69923">
        <ele>1261</ele>
        <time>2021-08-21T08:50:08+02:00</time>
      </trkpt>
      <trkpt lat="45.45747" lon="6.69924">
        <ele>1262</ele>
        <time>2021-08-21T08:50:36+02:00</time>
      </trkpt>
      <trkpt lat="45.45764" lon="6.69927">
        <ele>1265</ele>
        <time>2021-08-21T08:51:04+02:00</time>
      </trkpt>
      <trkpt lat="45.4578" lon="6.69929">
        <ele>1268</ele>
        <time>2021-08-21T08:51:27+02:00</time>
      </trkpt>
      <trkpt lat="45.45799" lon="6.69931">
        <ele>1275</ele>
        <time>2021-08-21T08:51:58+02:00</time>
      </trkpt>
      <trkpt lat="45.45795" lon="6.69965">
        <ele>1275</ele>
        <time>2021-08-21T08:52:29+02:00</time>
      </trkpt>
      <trkpt lat="45.45818" lon="6.69965">
        <ele>1282</ele>
        <time>2021-08-21T08:53:32+02:00</time>
      </trkpt>
      <trkpt lat="45.45835" lon="6.69979">
        <ele>1291</ele>
        <time>2021-08-21T08:54:07+02:00</time>
      </trkpt>
      <trkpt lat="45.45852" lon="6.69998">
        <ele>1306</ele>
        <time>2021-08-21T08:55:36+02:00</time>
      </trkpt>
      <trkpt lat="45.45864" lon="6.70023">
        <ele>1316</ele>
        <time>2021-08-21T08:56:07+02:00</time>
      </trkpt>
      <trkpt lat="45.45876" lon="6.70049">
        <ele>1322</ele>
        <time>2021-08-21T08:56:59+02:00</time>
      </trkpt>
      <trkpt lat="45.45885" lon="6.70078">
        <ele>1323</ele>
        <time>2021-08-21T08:57:46+02:00</time>
      </trkpt>
      <trkpt lat="45.45897" lon="6.70104">
        <ele>1329</ele>
        <time>2021-08-21T08:58:19+02:00</time>
      </trkpt>
      <trkpt lat="45.4591" lon="6.70127">
        <ele>1339</ele>
        <time>2021-08-21T08:59:42+02:00</time>
      </trkpt>
      <trkpt lat="45.45922" lon="6.70151">
        <ele>1345</ele>
        <time>2021-08-21T09:00:30+02:00</time>
      </trkpt>
      <trkpt lat="45.4593" lon="6.70176">
        <ele>1350</ele>
        <time>2021-08-21T09:02:22+02:00</time>
      </trkpt>
      <trkpt lat="45.45943" lon="6.70197">
        <ele>1360</ele>
        <time>2021-08-21T09:02:52+02:00</time>
      </trkpt>
      <trkpt lat="45.4596" lon="6.70217">
        <ele>1371</ele>
        <time>2021-08-21T09:03:29+02:00</time>
      </trkpt>
      <trkpt lat="45.45955" lon="6.70189">
        <ele>1373</ele>
      </trkpt>
      <trkpt lat="45.4598" lon="6.70216">
        <ele>1387</ele>
        <time>2021-08-21T09:06:05+02:00</time>
      </trkpt>
      <trkpt lat="45.45999" lon="6.70227">
        <ele>1396</ele>
        <time>2021-08-21T09:06:56+02:00</time>
      </trkpt>
      <trkpt lat="45.46015" lon="6.70243">
        <ele>1406</ele>
        <time>2021-08-21T09:07:43+02:00</time>
      </trkpt>
      <trkpt lat="45.46023" lon="6.70265">
        <ele>1410</ele>
        <time>2021-08-21T09:08:26+02:00</time>
      </trkpt>
      <trkpt lat="45.46029" lon="6.70285">
        <ele>1413</ele>
        <time>2021-08-21T09:08:58+02:00</time>
      </trkpt>
      <trkpt lat="45.46038" lon="6.70312">
        <ele>1419</ele>
        <time>2021-08-21T09:09:36+02:00</time>
      </trkpt>
      <trkpt lat="45.46048" lon="6.70339">
        <ele>1421</ele>
        <time>2021-08-21T09:10:23+02:00</time>
      </trkpt>
      <trkpt lat="45.46052" lon="6.70343">
        <ele>1424</ele>
        <time>2021-08-21T09:10:38+02:00</time>
      </trkpt>
      <trkpt lat="45.46068" lon="6.70346">
        <ele>1433</ele>
      </trkpt>
      <trkpt lat="45.46063" lon="6.70315">
        <ele>1438</ele>
        <time>2021-08-21T09:12:41+02:00</time>
      </trkpt>
      <trkpt lat="45.46063" lon="6.70284">
        <ele>1446</ele>
        <time>2021-08-21T09:13:16+02:00</time>
      </trkpt>
      <trkpt lat="45.46065" lon="6.70256">
        <ele>1454</ele>
        <time>2021-08-21T09:13:53+02:00</time>
      </trkpt>
      <trkpt lat="45.46061" lon="6.70225">
        <ele>1458</ele>
        <time>2021-08-21T09:14:21+02:00</time>
      </trkpt>
      <trkpt lat="45.46064" lon="6.70194">
        <ele>1465</ele>
        <time>2021-08-21T09:14:52+02:00</time>
      </trkpt>
      <trkpt lat="45.46061" lon="6.70164">
        <ele>1470</ele>
        <time>2021-08-21T09:15:42+02:00</time>
      </trkpt>
      <trkpt lat="45.46083" lon="6.7016">
        <ele>1480</ele>
        <time>2021-08-21T09:18:38+02:00</time>
      </trkpt>
      <trkpt lat="45.46098" lon="6.70174">
        <ele>1484</ele>
        <time>2021-08-21T09:19:17+02:00</time>
      </trkpt>
      <trkpt lat="45.46104" lon="6.70205">
        <ele>1489</ele>
        <time>2021-08-21T09:20:11+02:00</time>
      </trkpt>
      <trkpt lat="45.46115" lon="6.70229">
        <ele>1499</ele>
        <time>2021-08-21T09:20:48+02:00</time>
      </trkpt>
      <trkpt lat="45.46127" lon="6.70253">
        <ele>1507</ele>
        <time>2021-08-21T09:21:19+02:00</time>
      </trkpt>
      <trkpt lat="45.46133" lon="6.70277">
        <ele>1508</ele>
        <time>2021-08-21T09:21:51+02:00</time>
      </trkpt>
      <trkpt lat="45.46146" lon="6.703">
        <ele>1509</ele>
        <time>2021-08-21T09:22:20+02:00</time>
      </trkpt>
      <trkpt lat="45.46158" lon="6.70313">
        <ele>1510</ele>
        <time>2021-08-21T09:22:42+02:00</time>
      </trkpt>
      <trkpt lat="45.46177" lon="6.7033">
        <ele>1512</ele>
        <time>2021-08-21T09:23:12+02:00</time>
      </trkpt>
      <trkpt lat="45.46194" lon="6.70336">
        <ele>1517</ele>
        <time>2021-08-21T09:23:33+02:00</time>
      </trkpt>
      <trkpt lat="45.46212" lon="6.70343">
        <ele>1523</ele>
        <time>2021-08-21T09:24:02+02:00</time>
      </trkpt>
      <trkpt lat="45.4623" lon="6.70353">
        <ele>1530</ele>
        <time>2021-08-21T09:24:28+02:00</time>
      </trkpt>
      <trkpt lat="45.46245" lon="6.70364">
        <ele>1534</ele>
        <time>2021-08-21T09:25:09+02:00</time>
      </trkpt>
      <trkpt lat="45.46263" lon="6.70372">
        <ele>1543</ele>
        <time>2021-08-21T09:25:45+02:00</time>
      </trkpt>
      <trkpt lat="45.46266" lon="6.70394">
        <ele>1538</ele>
      </trkpt>
      <trkpt lat="45.46279" lon="6.70383">
        <ele>1549</ele>
        <time>2021-08-21T09:26:22+02:00</time>
      </trkpt>
      <trkpt lat="45.4629" lon="6.70395">
        <ele>1552</ele>
        <time>2021-08-21T09:28:07+02:00</time>
      </trkpt>
      <trkpt lat="45.46293" lon="6.70407">
        <ele>1553</ele>
        <time>2021-08-21T09:28:55+02:00</time>
      </trkpt>
      <trkpt lat="45.46304" lon="6.70429">
        <ele>1560</ele>
        <time>2021-08-21T09:29:15+02:00</time>
      </trkpt>
      <trkpt lat="45.46331" lon="6.70423">
        <ele>1570</ele>
      </trkpt>
      <trkpt lat="45.4633" lon="6.70437">
        <ele>1572</ele>
      </trkpt>
      <trkpt lat="45.4635" lon="6.70428">
        <ele>1580</ele>
        <time>2021-08-21T09:30:11+02:00</time>
      </trkpt>
      <trkpt lat="45.46363" lon="6.70436">
        <ele>1586</ele>
      </trkpt>
      <trkpt lat="45.46361" lon="6.7045">
        <ele>1587</ele>
      </trkpt>
      <trkpt lat="45.46376" lon="6.70449">
        <ele>1592</ele>
        <time>2021-08-21T09:30:45+02:00</time>
      </trkpt>
      <trkpt lat="45.46388" lon="6.70464">
        <ele>1598</ele>
        <time>2021-08-21T09:31:32+02:00</time>
      </trkpt>
      <trkpt lat="45.46402" lon="6.70444">
        <ele>1601</ele>
        <time>2021-08-21T09:32:17+02:00</time>
      </trkpt>
      <trkpt lat="45.46411" lon="6.70436">
        <ele>1607</ele>
      </trkpt>
      <trkpt lat="45.46415" lon="6.70457">
        <ele>1609</ele>
        <time>2021-08-21T09:33:01+02:00</time>
      </trkpt>
      <trkpt lat="45.46428" lon="6.70475">
        <ele>1618</ele>
        <time>2021-08-21T09:33:12+02:00</time>
      </trkpt>
      <trkpt lat="45.46445" lon="6.70452">
        <ele>1620</ele>
        <time>2021-08-21T09:46:18+02:00</time>
      </trkpt>
      <trkpt lat="45.46456" lon="6.70415">
        <ele>1633</ele>
        <time>2021-08-21T09:47:10+02:00</time>
      </trkpt>
      <trkpt lat="45.46478" lon="6.70437">
        <ele>1640</ele>
        <time>2021-08-21T09:47:40+02:00</time>
      </trkpt>
      <trkpt lat="45.46499" lon="6.70449">
        <ele>1657</ele>
        <time>2021-08-21T09:49:01+02:00</time>
      </trkpt>
      <trkpt lat="45.46508" lon="6.70465">
        <ele>1664</ele>
        <time>2021-08-21T09:49:40+02:00</time>
      </trkpt>
      <trkpt lat="45.46513" lon="6.70501">
        <ele>1672</ele>
        <time>2021-08-21T09:50:27+02:00</time>
      </trkpt>
      <trkpt lat="45.46533" lon="6.70504">
        <ele>1683</ele>
      </trkpt>
      <trkpt lat="45.46536" lon="6.70484">
        <ele>1684</ele>
        <time>2021-08-21T09:52:05+02:00</time>
      </trkpt>
      <trkpt lat="45.46547" lon="6.70493">
        <ele>1689</ele>
      </trkpt>
      <trkpt lat="45.46556" lon="6.70478">
        <ele>1695</ele>
        <time>2021-08-21T09:52:55+02:00</time>
      </trkpt>
      <trkpt lat="45.46577" lon="6.7048">
        <ele>1704</ele>
        <time>2021-08-21T09:53:32+02:00</time>
      </trkpt>
      <trkpt lat="45.46591" lon="6.70489">
        <ele>1710</ele>
      </trkpt>
      <trkpt lat="45.46596" lon="6.70454">
        <ele>1709</ele>
        <time>2021-08-21T09:54:39+02:00</time>
      </trkpt>
      <trkpt lat="45.46606" lon="6.70463">
        <ele>1713</ele>
        <time>2021-08-21T10:10:45+02:00</time>
      </trkpt>
      <trkpt lat="45.46638" lon="6.70457">
        <ele>1720</ele>
        <time>2021-08-21T10:11:18+02:00</time>
      </trkpt>
      <trkpt lat="45.4663" lon="6.70495">
        <ele>1727</ele>
      </trkpt>
      <trkpt lat="45.46647" lon="6.70502">
        <ele>1737</ele>
        <time>2021-08-21T10:12:30+02:00</time>
      </trkpt>
      <trkpt lat="45.46667" lon="6.70495">
        <ele>1746</ele>
        <time>2021-08-21T10:13:17+02:00</time>
      </trkpt>
      <trkpt lat="45.46676" lon="6.70469">
        <ele>1742</ele>
        <time>2021-08-21T10:13:54+02:00</time>
      </trkpt>
      <trkpt lat="45.46695" lon="6.70455">
        <ele>1743</ele>
        <time>2021-08-21T10:14:16+02:00</time>
      </trkpt>
      <trkpt lat="45.46716" lon="6.70453">
        <ele>1745</ele>
        <time>2021-08-21T10:14:36+02:00</time>
      </trkpt>
      <trkpt lat="45.46735" lon="6.70441">
        <ele>1743</ele>
        <time>2021-08-21T10:15:18+02:00</time>
      </trkpt>
      <trkpt lat="45.46754" lon="6.70424">
        <ele>1741</ele>
        <time>2021-08-21T10:15:40+02:00</time>
      </trkpt>
      <trkpt lat="45.46774" lon="6.7041">
        <ele>1740</ele>
        <time>2021-08-21T10:16:00+02:00</time>
      </trkpt>
      <trkpt lat="45.46795" lon="6.70403">
        <ele>1744</ele>
        <time>2021-08-21T10:16:28+02:00</time>
      </trkpt>
      <trkpt lat="45.46799" lon="6.70365">
        <ele>1739</ele>
        <time>2021-08-21T10:17:03+02:00</time>
      </trkpt>
      <trkpt lat="45.46825" lon="6.70365">
        <ele>1757</ele>
        <time>2021-08-21T10:18:43+02:00</time>
      </trkpt>
      <trkpt lat="45.46832" lon="6.70344">
        <ele>1759</ele>
        <time>2021-08-21T10:19:24+02:00</time>
      </trkpt>
      <trkpt lat="45.46846" lon="6.7032">
        <ele>1767</ele>
        <time>2021-08-21T10:19:47+02:00</time>
      </trkpt>
      <trkpt lat="45.46854" lon="6.70293">
        <ele>1769</ele>
        <time>2021-08-21T10:20:16+02:00</time>
      </trkpt>
      <trkpt lat="45.46856" lon="6.70264">
        <ele>1768</ele>
        <time>2021-08-21T10:20:38+02:00</time>
      </trkpt>
      <trkpt lat="45.4686" lon="6.70236">
        <ele>1768</ele>
        <time>2021-08-21T10:21:00+02:00</time>
      </trkpt>
      <trkpt lat="45.46865" lon="6.70224">
        <ele>1770</ele>
        <time>2021-08-21T10:22:39+02:00</time>
      </trkpt>
      <trkpt lat="45.4686" lon="6.70197">
        <ele>1764</ele>
        <time>2021-08-21T10:23:43+02:00</time>
      </trkpt>
      <trkpt lat="45.46864" lon="6.70168">
        <ele>1764</ele>
        <time>2021-08-21T10:24:17+02:00</time>
      </trkpt>
      <trkpt lat="45.46859" lon="6.70148">
        <ele>1762</ele>
      </trkpt>
      <trkpt lat="45.46867" lon="6.70125">
        <ele>1764</ele>
        <time>2021-08-21T10:25:24+02:00</time>
      </trkpt>
      <trkpt lat="45.46867" lon="6.70096">
        <ele>1763</ele>
        <time>2021-08-21T10:25:57+02:00</time>
      </trkpt>
      <trkpt lat="45.46876" lon="6.70076">
        <ele>1768</ele>
        <time>2021-08-21T10:26:44+02:00</time>
      </trkpt>
      <trkpt lat="45.46875" lon="6.70045">
        <ele>1769</ele>
        <time>2021-08-21T10:27:11+02:00</time>
      </trkpt>
      <trkpt lat="45.46864" lon="6.70019">
        <ele>1765</ele>
        <time>2021-08-21T10:27:40+02:00</time>
      </trkpt>
      <trkpt lat="45.46854" lon="6.69992">
        <ele>1766</ele>
        <time>2021-08-21T10:28:06+02:00</time>
      </trkpt>
      <trkpt lat="45.46843" lon="6.69967">
        <ele>1768</ele>
        <time>2021-08-21T10:28:36+02:00</time>
      </trkpt>
      <trkpt lat="45.4683" lon="6.69941">
        <ele>1767</ele>
        <time>2021-08-21T10:29:11+02:00</time>
      </trkpt>
      <trkpt lat="45.46823" lon="6.69911">
        <ele>1771</ele>
        <time>2021-08-21T10:29:38+02:00</time>
      </trkpt>
      <trkpt lat="45.46812" lon="6.69884">
        <ele>1779</ele>
        <time>2021-08-21T10:30:31+02:00</time>
      </trkpt>
      <trkpt lat="45.46797" lon="6.69863">
        <ele>1785</ele>
        <time>2021-08-21T10:32:53+02:00</time>
      </trkpt>
      <trkpt lat="45.46786" lon="6.69835">
        <ele>1793</ele>
        <time>2021-08-21T10:34:21+02:00</time>
      </trkpt>
      <trkpt lat="45.46767" lon="6.69823">
        <ele>1784</ele>
        <time>2021-08-21T10:36:07+02:00</time>
      </trkpt>
      <trkpt lat="45.46759" lon="6.69796">
        <ele>1790</ele>
        <time>2021-08-21T10:36:44+02:00</time>
      </trkpt>
      <trkpt lat="45.46744" lon="6.69776">
        <ele>1789</ele>
        <time>2021-08-21T10:37:10+02:00</time>
      </trkpt>
      <trkpt lat="45.46732" lon="6.69752">
        <ele>1795</ele>
        <time>2021-08-21T10:37:40+02:00</time>
      </trkpt>
      <trkpt lat="45.46725" lon="6.6972">
        <ele>1801</ele>
        <time>2021-08-21T10:38:36+02:00</time>
      </trkpt>
      <trkpt lat="45.4671" lon="6.697">
        <ele>1789</ele>
        <time>2021-08-21T10:39:07+02:00</time>
      </trkpt>
      <trkpt lat="45.46712" lon="6.69667">
        <ele>1781</ele>
        <time>2021-08-21T10:48:02+02:00</time>
      </trkpt>
      <trkpt lat="45.46742" lon="6.69659">
        <ele>1783</ele>
        <time>2021-08-21T11:10:15+02:00</time>
      </trkpt>
      <trkpt lat="45.46762" lon="6.69645">
        <ele>1782</ele>
        <time>2021-08-21T11:11:00+02:00</time>
      </trkpt>
      <trkpt lat="45.46779" lon="6.69626">
        <ele>1778</ele>
        <time>2021-08-21T11:11:43+02:00</time>
      </trkpt>
      <trkpt lat="45.46792" lon="6.69604">
        <ele>1775</ele>
        <time>2021-08-21T11:12:04+02:00</time>
      </trkpt>
      <trkpt lat="45.46804" lon="6.69578">
        <ele>1769</ele>
        <time>2021-08-21T11:12:24+02:00</time>
      </trkpt>
      <trkpt lat="45.4682" lon="6.69555">
        <ele>1769</ele>
        <time>2021-08-21T11:12:50+02:00</time>
      </trkpt>
      <trkpt lat="45.46834" lon="6.69535">
        <ele>1770</ele>
        <time>2021-08-21T11:13:11+02:00</time>
      </trkpt>
      <trkpt lat="45.46847" lon="6.69509">
        <ele>1768</ele>
        <time>2021-08-21T11:13:33+02:00</time>
      </trkpt>
      <trkpt lat="45.46856" lon="6.69481">
        <ele>1761</ele>
        <time>2021-08-21T11:13:58+02:00</time>
      </trkpt>
      <trkpt lat="45.46872" lon="6.69463">
        <ele>1764</ele>
        <time>2021-08-21T11:14:19+02:00</time>
      </trkpt>
      <trkpt lat="45.46883" lon="6.69436">
        <ele>1760</ele>
        <time>2021-08-21T11:14:38+02:00</time>
      </trkpt>
      <trkpt lat="45.46889" lon="6.69406">
        <ele>1757</ele>
        <time>2021-08-21T11:15:17+02:00</time>
      </trkpt>
      <trkpt lat="45.46897" lon="6.69377">
        <ele>1757</ele>
        <time>2021-08-21T11:15:48+02:00</time>
      </trkpt>
      <trkpt lat="45.469" lon="6.69346">
        <ele>1753</ele>
        <time>2021-08-21T11:16:08+02:00</time>
      </trkpt>
      <trkpt lat="45.46905" lon="6.69315">
        <ele>1751</ele>
        <time>2021-08-21T11:16:26+02:00</time>
      </trkpt>
      <trkpt lat="45.46911" lon="6.69286">
        <ele>1753</ele>
        <time>2021-08-21T11:16:44+02:00</time>
      </trkpt>
      <trkpt lat="45.46911" lon="6.69254">
        <ele>1752</ele>
        <time>2021-08-21T11:17:24+02:00</time>
      </trkpt>
      <trkpt lat="45.46909" lon="6.69224">
        <ele>1749</ele>
        <time>2021-08-21T11:17:47+02:00</time>
      </trkpt>
      <trkpt lat="45.46906" lon="6.69192">
        <ele>1748</ele>
        <time>2021-08-21T11:18:08+02:00</time>
      </trkpt>
      <trkpt lat="45.46899" lon="6.69162">
        <ele>1747</ele>
        <time>2021-08-21T11:18:28+02:00</time>
      </trkpt>
      <trkpt lat="45.4689" lon="6.69136">
        <ele>1745</ele>
        <time>2021-08-21T11:18:46+02:00</time>
      </trkpt>
      <trkpt lat="45.46878" lon="6.69109">
        <ele>1737</ele>
        <time>2021-08-21T11:19:04+02:00</time>
      </trkpt>
      <trkpt lat="45.46886" lon="6.6908">
        <ele>1735</ele>
        <time>2021-08-21T11:19:24+02:00</time>
      </trkpt>
      <trkpt lat="45.46902" lon="6.6906">
        <ele>1732</ele>
        <time>2021-08-21T11:19:42+02:00</time>
      </trkpt>
      <trkpt lat="45.46922" lon="6.69045">
        <ele>1731</ele>
        <time>2021-08-21T11:20:01+02:00</time>
      </trkpt>
      <trkpt lat="45.46943" lon="6.69038">
        <ele>1732</ele>
        <time>2021-08-21T11:20:18+02:00</time>
      </trkpt>
      <trkpt lat="45.46962" lon="6.69026">
        <ele>1731</ele>
        <time>2021-08-21T11:20:37+02:00</time>
      </trkpt>
      <trkpt lat="45.4698" lon="6.69009">
        <ele>1737</ele>
        <time>2021-08-21T11:21:05+02:00</time>
      </trkpt>
      <trkpt lat="45.46937" lon="6.68916">
        <ele>1737</ele>
        <time>2021-08-21T11:22:27+02:00</time>
      </trkpt>
      <trkpt lat="45.46909" lon="6.68921">
        <ele>1725</ele>
        <time>2021-08-21T11:22:53+02:00</time>
      </trkpt>
      <trkpt lat="45.46894" lon="6.68895">
        <ele>1734</ele>
        <time>2021-08-21T11:23:13+02:00</time>
      </trkpt>
      <trkpt lat="45.46881" lon="6.68891">
        <ele>1733</ele>
        <time>2021-08-21T11:23:37+02:00</time>
      </trkpt>
      <trkpt lat="45.46853" lon="6.68893">
        <ele>1727</ele>
        <time>2021-08-21T11:23:58+02:00</time>
      </trkpt>
      <trkpt lat="45.46839" lon="6.68886">
        <ele>1727</ele>
        <time>2021-08-21T11:24:20+02:00</time>
      </trkpt>
      <trkpt lat="45.46829" lon="6.68869">
        <ele>1729</ele>
      </trkpt>
      <trkpt lat="45.46819" lon="6.68856">
        <ele>1728</ele>
        <time>2021-08-21T11:25:07+02:00</time>
      </trkpt>
      <trkpt lat="45.46813" lon="6.68835">
        <ele>1730</ele>
        <time>2021-08-21T11:25:29+02:00</time>
      </trkpt>
      <trkpt lat="45.46808" lon="6.68824">
        <ele>1728</ele>
        <time>2021-08-21T11:25:35+02:00</time>
      </trkpt>
      <trkpt lat="45.46815" lon="6.68811">
        <ele>1733</ele>
        <time>2021-08-21T11:26:07+02:00</time>
      </trkpt>
      <trkpt lat="45.46831" lon="6.68784">
        <ele>1735</ele>
        <time>2021-08-21T11:26:13+02:00</time>
      </trkpt>
      <trkpt lat="45.46843" lon="6.68767">
        <ele>1732</ele>
        <time>2021-08-21T12:34:13+02:00</time>
      </trkpt>
      <trkpt lat="45.4686" lon="6.68748">
        <ele>1729</ele>
        <time>2021-08-21T12:34:37+02:00</time>
      </trkpt>
      <trkpt lat="45.46879" lon="6.68731">
        <ele>1727</ele>
        <time>2021-08-21T12:34:56+02:00</time>
      </trkpt>
      <trkpt lat="45.46903" lon="6.68723">
        <ele>1728</ele>
        <time>2021-08-21T12:35:20+02:00</time>
      </trkpt>
      <trkpt lat="45.46912" lon="6.68698">
        <ele>1721</ele>
        <time>2021-08-21T12:35:42+02:00</time>
      </trkpt>
      <trkpt lat="45.46925" lon="6.68673">
        <ele>1714</ele>
        <time>2021-08-21T12:36:09+02:00</time>
      </trkpt>
      <trkpt lat="45.46944" lon="6.68657">
        <ele>1707</ele>
        <time>2021-08-21T12:36:36+02:00</time>
      </trkpt>
      <trkpt lat="45.46965" lon="6.68647">
        <ele>1702</ele>
        <time>2021-08-21T12:37:06+02:00</time>
      </trkpt>
      <trkpt lat="45.46978" lon="6.6865">
        <ele>1704</ele>
        <time>2021-08-21T12:37:31+02:00</time>
      </trkpt>
      <trkpt lat="45.47006" lon="6.68648">
        <ele>1704</ele>
        <time>2021-08-21T12:37:58+02:00</time>
      </trkpt>
      <trkpt lat="45.47038" lon="6.68638">
        <ele>1699</ele>
        <time>2021-08-21T12:38:21+02:00</time>
      </trkpt>
      <trkpt lat="45.47007" lon="6.68615">
        <ele>1686</ele>
        <time>2021-08-21T12:39:36+02:00</time>
      </trkpt>
      <trkpt lat="45.46986" lon="6.68608">
        <ele>1681</ele>
        <time>2021-08-21T12:39:59+02:00</time>
      </trkpt>
      <trkpt lat="45.46966" lon="6.68599">
        <ele>1675</ele>
        <time>2021-08-21T12:40:26+02:00</time>
      </trkpt>
      <trkpt lat="45.46945" lon="6.68593">
        <ele>1670</ele>
        <time>2021-08-21T12:41:40+02:00</time>
      </trkpt>
      <trkpt lat="45.46915" lon="6.68593">
        <ele>1666</ele>
        <time>2021-08-21T12:43:11+02:00</time>
      </trkpt>
      <trkpt lat="45.46908" lon="6.68576">
        <ele>1658</ele>
        <time>2021-08-21T12:43:38+02:00</time>
      </trkpt>
      <trkpt lat="45.46886" lon="6.68576">
        <ele>1654</ele>
        <time>2021-08-21T12:44:01+02:00</time>
      </trkpt>
      <trkpt lat="45.46866" lon="6.68568">
        <ele>1647</ele>
        <time>2021-08-21T12:44:28+02:00</time>
      </trkpt>
      <trkpt lat="45.46845" lon="6.68572">
        <ele>1640</ele>
        <time>2021-08-21T12:44:59+02:00</time>
      </trkpt>
      <trkpt lat="45.46825" lon="6.68583">
        <ele>1634</ele>
        <time>2021-08-21T12:45:23+02:00</time>
      </trkpt>
      <trkpt lat="45.4681" lon="6.68597">
        <ele>1634</ele>
      </trkpt>
      <trkpt lat="45.46809" lon="6.68567">
        <ele>1629</ele>
        <time>2021-08-21T12:46:04+02:00</time>
      </trkpt>
      <trkpt lat="45.46797" lon="6.68551">
        <ele>1631</ele>
        <time>2021-08-21T12:46:28+02:00</time>
      </trkpt>
      <trkpt lat="45.46768" lon="6.68552">
        <ele>1621</ele>
        <time>2021-08-21T12:46:45+02:00</time>
      </trkpt>
      <trkpt lat="45.46753" lon="6.68538">
        <ele>1620</ele>
        <time>2021-08-21T12:46:58+02:00</time>
      </trkpt>
      <trkpt lat="45.46748" lon="6.68517">
        <ele>1623</ele>
        <time>2021-08-21T12:47:18+02:00</time>
      </trkpt>
      <trkpt lat="45.46728" lon="6.68505">
        <ele>1624</ele>
        <time>2021-08-21T12:47:57+02:00</time>
      </trkpt>
      <trkpt lat="45.46707" lon="6.68497">
        <ele>1623</ele>
        <time>2021-08-21T12:48:14+02:00</time>
      </trkpt>
      <trkpt lat="45.46688" lon="6.68483">
        <ele>1627</ele>
        <time>2021-08-21T12:48:32+02:00</time>
      </trkpt>
      <trkpt lat="45.46667" lon="6.6848">
        <ele>1625</ele>
        <time>2021-08-21T12:48:57+02:00</time>
      </trkpt>
      <trkpt lat="45.46648" lon="6.68484">
        <ele>1622</ele>
        <time>2021-08-21T12:49:14+02:00</time>
      </trkpt>
      <trkpt lat="45.46626" lon="6.68485">
        <ele>1621</ele>
        <time>2021-08-21T12:49:33+02:00</time>
      </trkpt>
      <trkpt lat="45.46605" lon="6.68496">
        <ele>1613</ele>
        <time>2021-08-21T12:50:04+02:00</time>
      </trkpt>
      <trkpt lat="45.46603" lon="6.68498">
        <ele>1612</ele>
        <time>2021-08-21T12:50:15+02:00</time>
      </trkpt>
      <trkpt lat="45.46592" lon="6.68472">
        <ele>1616</ele>
        <time>2021-08-21T12:52:56+02:00</time>
      </trkpt>
      <trkpt lat="45.46581" lon="6.68445">
        <ele>1615</ele>
        <time>2021-08-21T12:53:18+02:00</time>
      </trkpt>
      <trkpt lat="45.46562" lon="6.68435">
        <ele>1610</ele>
        <time>2021-08-21T12:53:37+02:00</time>
      </trkpt>
      <trkpt lat="45.46541" lon="6.68445">
        <ele>1608</ele>
        <time>2021-08-21T12:53:58+02:00</time>
      </trkpt>
      <trkpt lat="45.4652" lon="6.68452">
        <ele>1612</ele>
        <time>2021-08-21T12:56:23+02:00</time>
      </trkpt>
      <trkpt lat="45.46501" lon="6.68466">
        <ele>1617</ele>
        <time>2021-08-21T12:56:44+02:00</time>
      </trkpt>
      <trkpt lat="45.46487" lon="6.6849">
        <ele>1618</ele>
        <time>2021-08-21T12:57:06+02:00</time>
      </trkpt>
      <trkpt lat="45.46473" lon="6.68513">
        <ele>1619</ele>
        <time>2021-08-21T12:57:34+02:00</time>
      </trkpt>
      <trkpt lat="45.46452" lon="6.68508">
        <ele>1621</ele>
        <time>2021-08-21T12:57:51+02:00</time>
      </trkpt>
      <trkpt lat="45.46435" lon="6.68492">
        <ele>1622</ele>
        <time>2021-08-21T12:58:06+02:00</time>
      </trkpt>
      <trkpt lat="45.46419" lon="6.6847">
        <ele>1621</ele>
        <time>2021-08-21T12:58:25+02:00</time>
      </trkpt>
      <trkpt lat="45.46405" lon="6.68445">
        <ele>1621</ele>
        <time>2021-08-21T12:58:42+02:00</time>
      </trkpt>
      <trkpt lat="45.46396" lon="6.68418">
        <ele>1624</ele>
        <time>2021-08-21T12:58:58+02:00</time>
      </trkpt>
      <trkpt lat="45.46379" lon="6.68398">
        <ele>1624</ele>
        <time>2021-08-21T12:59:19+02:00</time>
      </trkpt>
      <trkpt lat="45.4636" lon="6.68382">
        <ele>1626</ele>
        <time>2021-08-21T12:59:49+02:00</time>
      </trkpt>
      <trkpt lat="45.46342" lon="6.68395">
        <ele>1624</ele>
        <time>2021-08-21T13:00:11+02:00</time>
      </trkpt>
      <trkpt lat="45.46322" lon="6.68387">
        <ele>1630</ele>
        <time>2021-08-21T13:00:28+02:00</time>
      </trkpt>
      <trkpt lat="45.46302" lon="6.68393">
        <ele>1627</ele>
        <time>2021-08-21T13:00:46+02:00</time>
      </trkpt>
      <trkpt lat="45.46283" lon="6.68382">
        <ele>1628</ele>
        <time>2021-08-21T13:01:02+02:00</time>
      </trkpt>
      <trkpt lat="45.46266" lon="6.68364">
        <ele>1637</ele>
        <time>2021-08-21T13:01:24+02:00</time>
      </trkpt>
      <trkpt lat="45.46248" lon="6.68383">
        <ele>1633</ele>
        <time>2021-08-21T13:01:49+02:00</time>
      </trkpt>
      <trkpt lat="45.46231" lon="6.684">
        <ele>1639</ele>
        <time>2021-08-21T13:02:18+02:00</time>
      </trkpt>
      <trkpt lat="45.46214" lon="6.68419">
        <ele>1641</ele>
        <time>2021-08-21T13:02:37+02:00</time>
      </trkpt>
      <trkpt lat="45.46192" lon="6.68419">
        <ele>1645</ele>
        <time>2021-08-21T13:03:00+02:00</time>
      </trkpt>
      <trkpt lat="45.46172" lon="6.68406">
        <ele>1642</ele>
        <time>2021-08-21T13:03:20+02:00</time>
      </trkpt>
      <trkpt lat="45.46151" lon="6.68408">
        <ele>1639</ele>
        <time>2021-08-21T13:03:35+02:00</time>
      </trkpt>
      <trkpt lat="45.46137" lon="6.68406">
        <ele>1639</ele>
        <time>2021-08-21T13:04:08+02:00</time>
      </trkpt>
      <trkpt lat="45.46116" lon="6.68408">
        <ele>1636</ele>
        <time>2021-08-21T13:04:36+02:00</time>
      </trkpt>
      <trkpt lat="45.46096" lon="6.68404">
        <ele>1634</ele>
        <time>2021-08-21T13:04:56+02:00</time>
      </trkpt>
      <trkpt lat="45.46073" lon="6.68405">
        <ele>1630</ele>
        <time>2021-08-21T13:05:17+02:00</time>
      </trkpt>
      <trkpt lat="45.46054" lon="6.68413">
        <ele>1625</ele>
        <time>2021-08-21T13:05:35+02:00</time>
      </trkpt>
      <trkpt lat="45.46032" lon="6.68409">
        <ele>1621</ele>
        <time>2021-08-21T13:05:55+02:00</time>
      </trkpt>
      <trkpt lat="45.4602" lon="6.68384">
        <ele>1621</ele>
        <time>2021-08-21T13:06:12+02:00</time>
      </trkpt>
      <trkpt lat="45.46012" lon="6.68355">
        <ele>1624</ele>
        <time>2021-08-21T13:06:34+02:00</time>
      </trkpt>
      <trkpt lat="45.45991" lon="6.68358">
        <ele>1621</ele>
        <time>2021-08-21T13:07:24+02:00</time>
      </trkpt>
      <trkpt lat="45.45968" lon="6.68382">
        <ele>1613</ele>
        <time>2021-08-21T13:07:43+02:00</time>
      </trkpt>
      <trkpt lat="45.45952" lon="6.68373">
        <ele>1619</ele>
        <time>2021-08-21T13:08:02+02:00</time>
      </trkpt>
      <trkpt lat="45.45928" lon="6.68359">
        <ele>1625</ele>
        <time>2021-08-21T13:08:17+02:00</time>
      </trkpt>
      <trkpt lat="45.45903" lon="6.68378">
        <ele>1616</ele>
        <time>2021-08-21T13:08:43+02:00</time>
      </trkpt>
      <trkpt lat="45.45868" lon="6.68395">
        <ele>1607</ele>
        <time>2021-08-21T13:09:03+02:00</time>
      </trkpt>
      <trkpt lat="45.45909" lon="6.68408">
        <ele>1602</ele>
        <time>2021-08-21T13:10:02+02:00</time>
      </trkpt>
      <trkpt lat="45.45931" lon="6.68405">
        <ele>1603</ele>
        <time>2021-08-21T13:10:23+02:00</time>
      </trkpt>
      <trkpt lat="45.45949" lon="6.68422">
        <ele>1594</ele>
        <time>2021-08-21T13:10:43+02:00</time>
      </trkpt>
      <trkpt lat="45.45968" lon="6.68433">
        <ele>1593</ele>
        <time>2021-08-21T13:11:00+02:00</time>
      </trkpt>
      <trkpt lat="45.45976" lon="6.68462">
        <ele>1589</ele>
        <time>2021-08-21T13:11:23+02:00</time>
      </trkpt>
      <trkpt lat="45.4599" lon="6.68487">
        <ele>1587</ele>
        <time>2021-08-21T13:11:44+02:00</time>
      </trkpt>
      <trkpt lat="45.46007" lon="6.68505">
        <ele>1586</ele>
        <time>2021-08-21T13:12:04+02:00</time>
      </trkpt>
      <trkpt lat="45.46026" lon="6.68522">
        <ele>1584</ele>
        <time>2021-08-21T13:12:24+02:00</time>
      </trkpt>
      <trkpt lat="45.46042" lon="6.68542">
        <ele>1581</ele>
        <time>2021-08-21T13:12:44+02:00</time>
      </trkpt>
      <trkpt lat="45.46049" lon="6.68571">
        <ele>1575</ele>
        <time>2021-08-21T13:13:06+02:00</time>
      </trkpt>
      <trkpt lat="45.46056" lon="6.686">
        <ele>1571</ele>
        <time>2021-08-21T13:13:27+02:00</time>
      </trkpt>
      <trkpt lat="45.46062" lon="6.68628">
        <ele>1571</ele>
        <time>2021-08-21T13:13:45+02:00</time>
      </trkpt>
      <trkpt lat="45.4607" lon="6.68658">
        <ele>1572</ele>
        <time>2021-08-21T13:14:05+02:00</time>
      </trkpt>
      <trkpt lat="45.46057" lon="6.68682">
        <ele>1570</ele>
        <time>2021-08-21T13:14:26+02:00</time>
      </trkpt>
      <trkpt lat="45.4603" lon="6.68712">
        <ele>1566</ele>
        <time>2021-08-21T13:14:49+02:00</time>
      </trkpt>
      <trkpt lat="45.46037" lon="6.68673">
        <ele>1562</ele>
        <time>2021-08-21T13:15:35+02:00</time>
      </trkpt>
      <trkpt lat="45.46034" lon="6.68643">
        <ele>1558</ele>
        <time>2021-08-21T13:15:57+02:00</time>
      </trkpt>
      <trkpt lat="45.46026" lon="6.68614">
        <ele>1554</ele>
        <time>2021-08-21T13:16:31+02:00</time>
      </trkpt>
      <trkpt lat="45.46027" lon="6.68583">
        <ele>1558</ele>
        <time>2021-08-21T13:16:49+02:00</time>
      </trkpt>
      <trkpt lat="45.46012" lon="6.68563">
        <ele>1561</ele>
        <time>2021-08-21T13:17:08+02:00</time>
      </trkpt>
      <trkpt lat="45.45995" lon="6.68556">
        <ele>1557</ele>
        <time>2021-08-21T13:17:14+02:00</time>
      </trkpt>
      <trkpt lat="45.46013" lon="6.68592">
        <ele>1550</ele>
        <time>2021-08-21T13:17:45+02:00</time>
      </trkpt>
      <trkpt lat="45.46011" lon="6.68618">
        <ele>1546</ele>
        <time>2021-08-21T13:18:07+02:00</time>
      </trkpt>
      <trkpt lat="45.46001" lon="6.68606">
        <ele>1541</ele>
      </trkpt>
      <trkpt lat="45.45983" lon="6.68607">
        <ele>1533</ele>
        <time>2021-08-21T13:18:34+02:00</time>
      </trkpt>
      <trkpt lat="45.45973" lon="6.68631">
        <ele>1527</ele>
        <time>2021-08-21T13:19:04+02:00</time>
      </trkpt>
      <trkpt lat="45.45954" lon="6.68646">
        <ele>1520</ele>
        <time>2021-08-21T13:19:37+02:00</time>
      </trkpt>
      <trkpt lat="45.45932" lon="6.68634">
        <ele>1513</ele>
      </trkpt>
      <trkpt lat="45.45928" lon="6.68642">
        <ele>1511</ele>
        <time>2021-08-21T13:20:01+02:00</time>
      </trkpt>
      <trkpt lat="45.45915" lon="6.68644">
        <ele>1506</ele>
        <time>2021-08-21T13:20:37+02:00</time>
      </trkpt>
      <trkpt lat="45.45905" lon="6.68641">
        <ele>1504</ele>
      </trkpt>
      <trkpt lat="45.45904" lon="6.68656">
        <ele>1501</ele>
      </trkpt>
      <trkpt lat="45.45889" lon="6.68656">
        <ele>1496</ele>
        <time>2021-08-21T13:21:12+02:00</time>
      </trkpt>
      <trkpt lat="45.45876" lon="6.6869">
        <ele>1485</ele>
      </trkpt>
      <trkpt lat="45.4587" lon="6.68681">
        <ele>1484</ele>
        <time>2021-08-21T13:21:49+02:00</time>
      </trkpt>
      <trkpt lat="45.45865" lon="6.68692">
        <ele>1479</ele>
        <time>2021-08-21T13:22:29+02:00</time>
      </trkpt>
      <trkpt lat="45.45841" lon="6.68659">
        <ele>1476</ele>
        <time>2021-08-21T13:22:46+02:00</time>
      </trkpt>
      <trkpt lat="45.45818" lon="6.68647">
        <ele>1471</ele>
        <time>2021-08-21T13:23:05+02:00</time>
      </trkpt>
      <trkpt lat="45.45794" lon="6.68636">
        <ele>1469</ele>
        <time>2021-08-21T13:24:19+02:00</time>
      </trkpt>
      <trkpt lat="45.45756" lon="6.68637">
        <ele>1469</ele>
        <time>2021-08-21T13:24:43+02:00</time>
      </trkpt>
      <trkpt lat="45.45769" lon="6.68658">
        <ele>1461</ele>
      </trkpt>
      <trkpt lat="45.45749" lon="6.68673">
        <ele>1457</ele>
        <time>2021-08-21T13:25:07+02:00</time>
      </trkpt>
      <trkpt lat="45.45781" lon="6.6871">
        <ele>1445</ele>
        <time>2021-08-21T13:25:53+02:00</time>
      </trkpt>
      <trkpt lat="45.45764" lon="6.68715">
        <ele>1442</ele>
      </trkpt>
      <trkpt lat="45.45773" lon="6.68735">
        <ele>1436</ele>
        <time>2021-08-21T13:26:22+02:00</time>
      </trkpt>
      <trkpt lat="45.45726" lon="6.68774">
        <ele>1417</ele>
        <time>2021-08-21T13:28:04+02:00</time>
      </trkpt>
      <trkpt lat="45.4571" lon="6.68791">
        <ele>1414</ele>
        <time>2021-08-21T13:28:19+02:00</time>
      </trkpt>
      <trkpt lat="45.45693" lon="6.68807">
        <ele>1411</ele>
        <time>2021-08-21T13:28:34+02:00</time>
      </trkpt>
      <trkpt lat="45.45678" lon="6.68828">
        <ele>1408</ele>
        <time>2021-08-21T13:28:51+02:00</time>
      </trkpt>
      <trkpt lat="45.45661" lon="6.68839">
        <ele>1409</ele>
        <time>2021-08-21T13:28:58+02:00</time>
      </trkpt>
      <trkpt lat="45.45709" lon="6.68835">
        <ele>1398</ele>
        <time>2021-08-21T13:30:03+02:00</time>
      </trkpt>
      <trkpt lat="45.45726" lon="6.6884">
        <ele>1394</ele>
        <time>2021-08-21T13:30:15+02:00</time>
      </trkpt>
      <trkpt lat="45.45715" lon="6.68853">
        <ele>1390</ele>
        <time>2021-08-21T13:30:55+02:00</time>
      </trkpt>
      <trkpt lat="45.4573" lon="6.68871">
        <ele>1386</ele>
        <time>2021-08-21T13:31:14+02:00</time>
      </trkpt>
      <trkpt lat="45.45732" lon="6.68891">
        <ele>1382</ele>
        <time>2021-08-21T13:31:37+02:00</time>
      </trkpt>
      <trkpt lat="45.45731" lon="6.68917">
        <ele>1375</ele>
        <time>2021-08-21T13:31:54+02:00</time>
      </trkpt>
      <trkpt lat="45.45736" lon="6.68943">
        <ele>1374</ele>
        <time>2021-08-21T13:32:15+02:00</time>
      </trkpt>
      <trkpt lat="45.45735" lon="6.68968">
        <ele>1368</ele>
        <time>2021-08-21T13:32:33+02:00</time>
      </trkpt>
      <trkpt lat="45.45737" lon="6.68995">
        <ele>1365</ele>
        <time>2021-08-21T13:32:50+02:00</time>
      </trkpt>
      <trkpt lat="45.45739" lon="6.69023">
        <ele>1362</ele>
        <time>2021-08-21T13:33:06+02:00</time>
      </trkpt>
      <trkpt lat="45.45745" lon="6.69049">
        <ele>1362</ele>
        <time>2021-08-21T13:33:25+02:00</time>
      </trkpt>
      <trkpt lat="45.45753" lon="6.69074">
        <ele>1363</ele>
        <time>2021-08-21T13:33:43+02:00</time>
      </trkpt>
      <trkpt lat="45.45768" lon="6.6909">
        <ele>1367</ele>
        <time>2021-08-21T13:33:57+02:00</time>
      </trkpt>
      <trkpt lat="45.45777" lon="6.69105">
        <ele>1366</ele>
        <time>2021-08-21T13:34:14+02:00</time>
      </trkpt>
      <trkpt lat="45.45792" lon="6.69118">
        <ele>1364</ele>
        <time>2021-08-21T13:34:37+02:00</time>
      </trkpt>
      <trkpt lat="45.45809" lon="6.69132">
        <ele>1360</ele>
        <time>2021-08-21T13:34:49+02:00</time>
      </trkpt>
      <trkpt lat="45.45822" lon="6.69149">
        <ele>1354</ele>
        <time>2021-08-21T13:35:05+02:00</time>
      </trkpt>
      <trkpt lat="45.4584" lon="6.69159">
        <ele>1357</ele>
        <time>2021-08-21T13:35:19+02:00</time>
      </trkpt>
      <trkpt lat="45.45855" lon="6.69173">
        <ele>1358</ele>
        <time>2021-08-21T13:35:36+02:00</time>
      </trkpt>
      <trkpt lat="45.45873" lon="6.69189">
        <ele>1358</ele>
        <time>2021-08-21T13:35:58+02:00</time>
      </trkpt>
      <trkpt lat="45.45891" lon="6.69204">
        <ele>1357</ele>
        <time>2021-08-21T13:36:22+02:00</time>
      </trkpt>
      <trkpt lat="45.45903" lon="6.69226">
        <ele>1350</ele>
        <time>2021-08-21T13:36:41+02:00</time>
      </trkpt>
      <trkpt lat="45.45912" lon="6.69251">
        <ele>1344</ele>
        <time>2021-08-21T13:37:05+02:00</time>
      </trkpt>
      <trkpt lat="45.45922" lon="6.6927">
        <ele>1343</ele>
        <time>2021-08-21T13:37:22+02:00</time>
      </trkpt>
      <trkpt lat="45.45906" lon="6.69258">
        <ele>1340</ele>
        <time>2021-08-21T13:39:07+02:00</time>
      </trkpt>
      <trkpt lat="45.45887" lon="6.69241">
        <ele>1340</ele>
        <time>2021-08-21T13:39:30+02:00</time>
      </trkpt>
      <trkpt lat="45.45868" lon="6.69231">
        <ele>1337</ele>
        <time>2021-08-21T13:39:54+02:00</time>
      </trkpt>
      <trkpt lat="45.45851" lon="6.69222">
        <ele>1334</ele>
        <time>2021-08-21T13:40:09+02:00</time>
      </trkpt>
      <trkpt lat="45.45831" lon="6.6921">
        <ele>1329</ele>
        <time>2021-08-21T13:40:27+02:00</time>
      </trkpt>
      <trkpt lat="45.45816" lon="6.69187">
        <ele>1332</ele>
        <time>2021-08-21T13:40:47+02:00</time>
      </trkpt>
      <trkpt lat="45.458" lon="6.69178">
        <ele>1330</ele>
        <time>2021-08-21T13:41:02+02:00</time>
      </trkpt>
      <trkpt lat="45.45779" lon="6.69173">
        <ele>1326</ele>
        <time>2021-08-21T13:41:23+02:00</time>
      </trkpt>
      <trkpt lat="45.45758" lon="6.69165">
        <ele>1322</ele>
        <time>2021-08-21T13:41:42+02:00</time>
      </trkpt>
      <trkpt lat="45.45736" lon="6.69161">
        <ele>1316</ele>
        <time>2021-08-21T13:42:02+02:00</time>
      </trkpt>
      <trkpt lat="45.45717" lon="6.69144">
        <ele>1315</ele>
        <time>2021-08-21T13:42:20+02:00</time>
      </trkpt>
      <trkpt lat="45.45701" lon="6.69128">
        <ele>1309</ele>
        <time>2021-08-21T13:42:39+02:00</time>
      </trkpt>
      <trkpt lat="45.45692" lon="6.69109">
        <ele>1308</ele>
        <time>2021-08-21T13:42:52+02:00</time>
      </trkpt>
      <trkpt lat="45.45687" lon="6.69072">
        <ele>1315</ele>
        <time>2021-08-21T13:43:08+02:00</time>
      </trkpt>
      <trkpt lat="45.45676" lon="6.69064">
        <ele>1313</ele>
      </trkpt>
      <trkpt lat="45.45668" lon="6.69066">
        <ele>1310</ele>
        <time>2021-08-21T13:45:47+02:00</time>
      </trkpt>
      <trkpt lat="45.45648" lon="6.69084">
        <ele>1305</ele>
        <time>2021-08-21T13:47:34+02:00</time>
      </trkpt>
      <trkpt lat="45.4566" lon="6.69118">
        <ele>1293</ele>
        <time>2021-08-21T13:47:55+02:00</time>
      </trkpt>
      <trkpt lat="45.45664" lon="6.69152">
        <ele>1287</ele>
        <time>2021-08-21T13:48:12+02:00</time>
      </trkpt>
      <trkpt lat="45.45632" lon="6.6915">
        <ele>1278</ele>
        <time>2021-08-21T13:48:52+02:00</time>
      </trkpt>
      <trkpt lat="45.45644" lon="6.69194">
        <ele>1272</ele>
      </trkpt>
      <trkpt lat="45.45619" lon="6.69203">
        <ele>1265</ele>
        <time>2021-08-21T13:49:11+02:00</time>
      </trkpt>
      <trkpt lat="45.45624" lon="6.69224">
        <ele>1263</ele>
        <time>2021-08-21T13:49:34+02:00</time>
      </trkpt>
      <trkpt lat="45.45601" lon="6.69238">
        <ele>1257</ele>
        <time>2021-08-21T13:49:53+02:00</time>
      </trkpt>
      <trkpt lat="45.45615" lon="6.69275">
        <ele>1255</ele>
        <time>2021-08-21T13:50:23+02:00</time>
      </trkpt>
      <trkpt lat="45.45612" lon="6.69284">
        <ele>1253</ele>
        <time>2021-08-21T13:50:33+02:00</time>
      </trkpt>
    </trkseg>
  </trk>
</gpx>